Euxton, United Kingdom
Current Conditions -  °F | °C
As of 8:50 AM on Wednesday 26 Nov 2014 (Local Time) from EGNO Reporting Station
Light Rain Light Rain  
Wind Chill: 45°   Ceiling: 3400
Heat Index: 45°   Visibility: 5mi
Dew Point: 43°   Wind: 3mph
Humidity: 93%   Direction: 20°NNE
Pressure: 29.94"   Gusts: NA
Location:  53.67°N, 2.68°W
Report Text: EGNO 260850Z 02003KT 8000 -RA FEW026 BKN034 07/06 Q1014
Loading
Personal Weather Stations






























Interactive Weather Map New forecast layout! Learn more

10-Day Weather Forecast

Advertisements
Track Severe Weather on mobile